Time;durP1;ratioP1;P1;durP2;ratioP2;P2;SDS_P1;SDS_P2;PMS_P1;PMS_P2;Temp;Humidity;BMP_temperature;BMP_pressure;BME280_temperature;BME280_humidity;BME280_pressure;Samples;Min_cycle;Max_cycle;Signal;HPM_P1;HPM_P2
2021/09/25 00:00:26;;;;;;;11.15;7.30;;;;;;;11.04;95.36;98125.56;4960570;28;20093;-58
2021/09/25 00:02:51;;;;;;;12.27;7.47;;;;;;;10.97;96.10;98124.13;4961910;28;20662;-58
2021/09/25 00:05:16;;;;;;;10.05;6.72;;;;;;;11.41;96.40;98123.19;4960257;28;20031;-58
2021/09/25 00:07:42;;;;;;;12.32;7.80;;;;;;;10.93;94.51;98122.56;4961808;28;20101;-58
2021/09/25 00:10:08;;;;;;;11.00;7.57;;;;;;;10.98;94.64;98124.06;4960645;28;20033;-58
2021/09/25 00:12:33;;;;;;;13.13;7.72;;;;;;;10.85;95.78;98114.19;4961634;28;20105;-59
2021/09/25 00:14:58;;;;;;;10.48;7.43;;;;;;;10.85;96.37;98116.81;4961363;28;20097;-59
2021/09/25 00:17:24;;;;;;;11.75;7.25;;;;;;;10.71;97.01;98122.56;4960510;28;20053;-58
2021/09/25 00:19:52;;;;;;;10.75;7.50;;;;;;;10.88;95.64;98121.88;4961762;28;20400;-59
2021/09/25 00:22:17;;;;;;;9.90;7.20;;;;;;;10.75;96.56;98111.97;4960244;28;20051;-59
2021/09/25 00:24:43;;;;;;;13.65;7.35;;;;;;;11.09;95.22;98120.19;4944423;28;20030;-58
2021/09/25 00:27:08;;;;;;;15.25;7.90;;;;;;;10.88;95.99;98120.16;4960746;28;20047;-59
2021/09/25 00:29:34;;;;;;;14.43;7.93;;;;;;;10.90;96.31;98123.53;4961413;28;20062;-58
2021/09/25 00:32:00;;;;;;;14.57;8.77;;;;;;;11.11;94.89;98120.97;4960544;28;20069;-58
2021/09/25 00:34:25;;;;;;;11.95;7.43;;;;;;;11.02;97.79;98122.19;4960966;28;20031;-58
2021/09/25 00:36:51;;;;;;;12.68;7.57;;;;;;;11.19;96.01;98116.25;4960678;28;20085;-59
2021/09/25 00:39:16;;;;;;;10.10;7.05;;;;;;;10.99;98.02;98117.94;4961899;28;20569;-58
2021/09/25 00:41:42;;;;;;;12.68;8.45;;;;;;;10.86;95.70;98121.94;4940146;28;20078;-59
2021/09/25 00:44:07;;;;;;;10.23;7.47;;;;;;;10.98;96.70;98126.69;4961530;28;20053;-58
2021/09/25 00:46:33;;;;;;;14.95;7.88;;;;;;;10.65;97.37;98121.06;4960591;28;20039;-59
2021/09/25 00:48:58;;;;;;;12.13;7.82;;;;;;;10.87;97.17;98118.44;4961553;28;20042;-58
2021/09/25 00:51:23;;;;;;;8.40;6.28;;;;;;;11.38;95.64;98119.81;4961475;28;20038;-58
2021/09/25 00:53:52;;;;;;;8.13;5.82;;;;;;;11.62;95.48;98124.06;4965427;28;20042;-58
2021/09/25 00:56:18;;;;;;;11.77;7.18;;;;;;;11.35;93.40;98125.16;4964294;28;20039;-58
2021/09/25 00:58:44;;;;;;;12.48;7.20;;;;;;;11.07;95.17;98129.84;4965414;28;20408;-59
2021/09/25 01:01:09;;;;;;;12.38;7.88;;;;;;;11.02;94.62;98129.16;4963851;28;20046;-58
2021/09/25 01:03:35;;;;;;;11.48;7.68;;;;;;;10.87;95.09;98121.03;4965222;28;20498;-57
2021/09/25 01:06:01;;;;;;;15.40;8.18;;;;;;;10.85;95.99;98122.88;4945940;28;20043;-60
2021/09/25 01:08:26;;;;;;;12.18;7.68;;;;;;;10.79;96.65;98120.53;4964945;28;20507;-59
2021/09/25 01:11:00;;;;;;;11.73;7.63;;;;;;;10.94;96.05;98117.28;4963474;28;20039;-58
2021/09/25 01:13:26;;;;;;;11.77;7.50;;;;;;;10.87;95.87;98112.38;4964640;28;20031;-58
2021/09/25 01:15:52;;;;;;;11.65;8.13;;;;;;;10.84;96.79;98112.50;4964451;28;20038;-58
2021/09/25 01:18:17;;;;;;;10.50;7.63;;;;;;;10.72;96.45;98103.41;4964678;28;20042;-58
2021/09/25 01:20:43;;;;;;;9.43;7.03;;;;;;;10.94;95.74;98101.63;4963548;28;20519;-60
2021/09/25 01:23:08;;;;;;;10.77;7.82;;;;;;;10.86;96.16;98108.06;4964895;28;20042;-57
2021/09/25 01:25:34;;;;;;;11.73;7.82;;;;;;;10.95;94.62;98105.06;4964076;28;20034;-57
2021/09/25 01:28:00;;;;;;;12.57;7.47;;;;;;;10.86;95.09;98101.06;4964619;28;20031;-58
2021/09/25 01:30:27;;;;;;;12.45;8.40;;;;;;;10.67;95.46;98105.34;4963475;28;20057;-58
2021/09/25 01:32:53;;;;;;;11.80;8.32;;;;;;;10.79;96.54;98107.47;4964727;28;20182;-58
2021/09/25 01:35:22;;;;;;;9.73;6.60;;;;;;;11.45;95.29;98094.28;4964111;28;20034;-59
2021/09/25 01:37:50;;;;;;;10.32;7.28;;;;;;;11.18;92.54;98099.75;4964367;28;20027;-59
2021/09/25 01:40:16;;;;;;;8.65;6.05;;;;;;;11.61;92.15;98099.69;4963253;28;20046;-58
2021/09/25 01:42:42;;;;;;;9.73;7.38;;;;;;;11.24;92.16;98096.03;4964386;28;20027;-58
2021/09/25 01:45:08;;;;;;;12.80;7.63;;;;;;;10.91;93.72;98100.91;4964003;28;20023;-58
2021/09/25 01:47:34;;;;;;;10.50;6.53;;;;;;;11.41;92.47;98110.13;4963892;28;20054;-57
2021/09/25 01:50:03;;;;;;;11.38;7.82;;;;;;;10.94;93.27;98104.22;4964322;28;20061;-57
2021/09/25 01:52:31;;;;;;;12.38;8.48;;;;;;;10.74;94.72;98105.03;4963160;28;20034;-58
2021/09/25 01:54:56;;;;;;;11.10;8.07;;;;;;;10.78;95.00;98111.81;4964074;28;20031;-60
2021/09/25 01:57:22;;;;;;;12.65;7.90;;;;;;;10.60;96.45;98110.81;4946056;28;20496;-57
2021/09/25 01:59:47;;;;;;;11.50;8.00;;;;;;;10.43;98.13;98108.00;4964213;28;20035;-58
2021/09/25 02:02:13;;;;;;;11.23;7.90;;;;;;;10.52;95.79;98101.59;4962397;28;20099;-59
2021/09/25 02:04:46;;;;;;;11.55;8.10;;;;;;;10.37;96.71;98108.25;4962454;28;20045;-58
2021/09/25 02:07:13;;;;;;;11.32;7.25;;;;;;;10.07;97.54;98111.03;4962642;28;20042;-58
2021/09/25 02:09:38;;;;;;;10.90;7.50;;;;;;;10.03;98.29;98106.84;4964038;28;20035;-59
2021/09/25 02:12:04;;;;;;;10.07;7.43;;;;;;;10.34;95.83;98106.59;4962317;28;20043;-58
2021/09/25 02:14:30;;;;;;;11.15;8.20;;;;;;;10.52;93.98;98106.81;4963688;28;20035;-58
2021/09/25 02:16:56;;;;;;;13.90;7.50;;;;;;;10.13;97.12;98099.56;4962700;28;20046;-61
2021/09/25 02:19:24;;;;;;;11.38;7.95;;;;;;;9.97;97.61;98094.91;4964087;28;20043;-58
2021/09/25 02:21:50;;;;;;;8.35;6.20;;;;;;;10.88;96.30;98104.50;4962172;28;20146;-58
2021/09/25 02:24:16;;;;;;;10.02;6.53;;;;;;;10.94;94.97;98104.22;4962900;28;20134;-58
2021/09/25 02:26:42;;;;;;;12.68;8.18;;;;;;;10.31;95.11;98108.47;4962609;28;20051;-59
2021/09/25 02:29:08;;;;;;;13.05;7.70;;;;;;;10.14;97.09;98103.84;4963835;28;20035;-58
2021/09/25 02:31:34;;;;;;;9.55;6.97;;;;;;;10.54;98.32;98100.59;4962009;28;20914;-59
2021/09/25 02:33:59;;;;;;;9.57;6.68;;;;;;;10.89;94.57;98100.09;4963637;28;20487;-58
2021/09/25 02:36:24;;;;;;;12.60;7.95;;;;;;;10.50;93.22;98096.41;4962474;28;20113;-59
2021/09/25 02:38:50;;;;;;;12.63;6.60;;;;;;;10.72;96.21;98108.63;4963503;28;20685;-58
2021/09/25 02:41:18;;;;;;;12.70;6.47;;;;;;;11.36;97.31;98105.97;4962055;28;20072;-60
2021/09/25 02:43:44;;;;;;;11.27;7.40;;;;;;;10.55;93.50;98106.66;4963160;28;20023;-58
2021/09/25 02:46:10;;;;;;;10.77;7.60;;;;;;;10.52;93.82;98112.84;4962770;28;20039;-58
2021/09/25 02:48:35;;;;;;;10.30;7.28;;;;;;;10.67;92.95;98105.34;4962942;28;20034;-58
2021/09/25 02:51:01;;;;;;;13.00;7.22;;;;;;;10.02;96.38;98113.00;4962073;28;20037;-59
2021/09/25 02:53:26;;;;;;;11.13;7.65;;;;;;;9.75;98.97;98104.44;4962629;28;20536;-60
2021/09/25 02:55:52;;;;;;;10.07;7.30;;;;;;;9.90;96.87;98109.06;4962662;28;20877;-57
2021/09/25 02:58:17;;;;;;;10.82;7.32;;;;;;;10.14;95.94;98107.31;4962904;28;20131;-58
2021/09/25 03:00:43;;;;;;;9.90;6.93;;;;;;;10.27;95.55;98102.47;4962050;28;20043;-58
2021/09/25 03:03:08;;;;;;;13.60;8.75;;;;;;;9.78;97.96;98106.94;4962905;28;20069;-59
2021/09/25 03:05:33;;;;;;;10.57;6.95;;;;;;;9.79;97.62;98112.06;4961170;28;20534;-59
2021/09/25 03:07:59;;;;;;;11.30;7.75;;;;;;;9.73;97.23;98112.28;4962371;28;20412;-58
2021/09/25 03:10:24;;;;;;;10.40;7.13;;;;;;;9.93;96.99;98113.34;4961851;28;20690;-59
2021/09/25 03:12:50;;;;;;;11.82;7.07;;;;;;;10.04;96.00;98105.97;4962865;28;20090;-58
2021/09/25 03:15:15;;;;;;;10.65;7.55;;;;;;;10.14;95.13;98117.72;4961678;28;20026;-58
2021/09/25 03:17:40;;;;;;;8.85;6.50;;;;;;;10.33;96.53;98111.84;4948236;28;20066;-58
2021/09/25 03:20:07;;;;;;;11.73;8.00;;;;;;;10.04;96.08;98111.19;4962032;28;20512;-59
2021/09/25 03:22:32;;;;;;;13.02;7.90;;;;;;;9.78;96.28;98109.53;4962024;28;20034;-58
2021/09/25 03:24:58;;;;;;;11.10;7.97;;;;;;;10.08;95.49;98117.13;4962642;28;20073;-59
2021/09/25 03:27:26;;;;;;;14.40;7.35;;;;;;;10.12;97.19;98111.72;4959387;28;20046;-59
2021/09/25 03:29:52;;;;;;;11.30;7.72;;;;;;;9.92;95.99;98116.84;4958613;28;20057;-59
2021/09/25 03:32:18;;;;;;;11.45;7.97;;;;;;;9.76;96.67;98114.78;4958795;28;20035;-58
2021/09/25 03:34:46;;;;;;;11.55;7.90;;;;;;;10.03;95.57;98112.94;4961990;28;20643;-61
2021/09/25 03:37:11;;;;;;;14.60;7.60;;;;;;;9.74;97.00;98119.22;4961108;28;20047;-59
2021/09/25 03:39:37;;;;;;;11.23;7.30;;;;;;;10.12;98.14;98119.53;4961912;28;20396;-58
2021/09/25 03:42:03;;;;;;;10.73;6.97;;;;;;;10.30;96.09;98109.34;4960551;28;20468;-58
2021/09/25 03:44:28;;;;;;;13.10;7.35;;;;;;;10.10;97.40;98105.72;4961914;28;20602;-58
2021/09/25 03:46:55;;;;;;;10.65;7.07;;;;;;;10.02;99.11;98107.78;4961305;28;20054;-58
2021/09/25 03:49:20;;;;;;;9.63;5.95;;;;;;;10.40;95.38;98113.31;4958881;28;20031;-60
2021/09/25 03:51:49;;;;;;;11.68;7.30;;;;;;;10.05;95.23;98118.06;4958929;28;20038;-60
2021/09/25 03:54:14;;;;;;;11.60;7.97;;;;;;;10.06;93.70;98105.91;4960350;28;20710;-62
2021/09/25 03:56:40;;;;;;;12.18;7.10;;;;;;;10.11;96.20;98106.56;4960756;28;20504;-60
2021/09/25 03:59:05;;;;;;;13.63;7.95;;;;;;;9.74;95.32;98106.19;4944164;28;20026;-61
2021/09/25 04:01:33;;;;;;;12.45;7.85;;;;;;;9.75;96.37;98107.88;4960557;28;20177;-58
2021/09/25 04:03:59;;;;;;;12.85;8.27;;;;;;;9.70;95.62;98117.59;4961435;28;20026;-59
2021/09/25 04:06:26;;;;;;;12.00;7.80;;;;;;;9.84;95.02;98120.56;4960398;28;20045;-58
2021/09/25 04:08:52;;;;;;;11.50;7.90;;;;;;;10.11;94.28;98120.47;4961169;28;20022;-60
2021/09/25 04:11:17;;;;;;;12.63;7.07;;;;;;;10.29;94.86;98125.88;4960106;28;20041;-59
2021/09/25 04:13:42;;;;;;;15.18;8.82;;;;;;;9.88;94.65;98126.50;4942932;28;20022;-61
2021/09/25 04:16:08;;;;;;;11.13;7.65;;;;;;;10.05;96.52;98123.28;4943912;28;20042;-58
2021/09/25 04:18:33;;;;;;;11.65;7.63;;;;;;;10.43;94.54;98120.19;4960855;28;20586;-58
2021/09/25 04:20:59;;;;;;;14.18;8.20;;;;;;;9.87;95.10;98123.97;4960438;28;20472;-59
2021/09/25 04:23:24;;;;;;;13.10;8.50;;;;;;;9.71;97.37;98111.50;4960546;28;20160;-60
2021/09/25 04:25:50;;;;;;;12.65;8.43;;;;;;;9.76;95.51;98113.91;4960933;28;20045;-58
2021/09/25 04:28:15;;;;;;;12.57;8.68;;;;;;;10.19;93.33;98121.03;4960846;28;20030;-59
2021/09/25 04:30:41;;;;;;;11.57;8.05;;;;;;;9.66;97.15;98123.81;4960045;28;20042;-59
2021/09/25 04:33:08;;;;;;;16.58;8.77;;;;;;;9.84;95.62;98117.97;4959920;28;20671;-58
2021/09/25 04:35:35;;;;;;;12.63;7.22;;;;;;;10.11;95.48;98117.88;4960654;28;20046;-58
2021/09/25 04:38:00;;;;;;;12.13;8.05;;;;;;;9.97;96.19;98120.13;4960552;28;20125;-58
2021/09/25 04:40:26;;;;;;;12.63;8.57;;;;;;;9.97;96.63;98120.97;4960313;28;20121;-58
2021/09/25 04:42:52;;;;;;;11.38;7.90;;;;;;;10.09;95.93;98124.91;4961111;28;20035;-58
2021/09/25 04:45:17;;;;;;;8.80;6.32;;;;;;;10.27;94.43;98127.72;4960614;28;20011;-59
2021/09/25 04:47:44;;;;;;;12.57;8.25;;;;;;;9.72;95.87;98131.41;4961002;28;20069;-58
2021/09/25 04:50:12;;;;;;;12.77;8.80;;;;;;;9.70;96.25;98137.59;4960225;28;20566;-60
2021/09/25 04:52:37;;;;;;;13.32;8.10;;;;;;;9.72;97.78;98130.56;4961031;28;20031;-59
2021/09/25 04:55:03;;;;;;;13.95;8.25;;;;;;;10.16;93.48;98133.31;4943453;28;20035;-59
2021/09/25 04:57:28;;;;;;;13.25;8.77;;;;;;;9.67;95.59;98128.16;4959949;28;20043;-58
2021/09/25 04:59:54;;;;;;;13.05;8.25;;;;;;;9.80;95.39;98123.34;4960986;28;20027;-58
2021/09/25 05:02:28;;;;;;;13.65;8.85;;;;;;;9.75;95.50;98135.69;4960076;28;20035;-59
2021/09/25 05:04:56;;;;;;;12.00;8.52;;;;;;;9.63;96.00;98139.56;4961242;28;20026;-59
2021/09/25 05:07:21;;;;;;;14.23;8.43;;;;;;;9.50;96.33;98139.13;4959985;28;20113;-61
2021/09/25 05:09:46;;;;;;;14.00;8.00;;;;;;;9.43;95.94;98135.91;4960279;28;20443;-59
2021/09/25 05:12:12;;;;;;;13.32;8.07;;;;;;;9.47;96.62;98135.81;4942413;28;20181;-59
2021/09/25 05:14:40;;;;;;;11.85;8.32;;;;;;;9.02;98.12;98135.53;4943575;28;20532;-60
2021/09/25 05:17:14;;;;;;;12.32;6.88;;;;;;;9.34;96.86;98131.00;4943565;28;20038;-59
2021/09/25 05:19:42;;;;;;;9.45;6.85;;;;;;;9.61;95.65;98138.75;4961007;28;20026;-59
2021/09/25 05:22:07;;;;;;;10.50;7.07;;;;;;;9.63;95.87;98135.22;4944694;28;20786;-59
2021/09/25 05:24:33;;;;;;;12.68;7.72;;;;;;;10.00;93.07;98135.66;4960329;28;20837;-59
2021/09/25 05:26:58;;;;;;;11.82;7.75;;;;;;;9.75;93.89;98144.34;4943022;28;20049;-59
2021/09/25 05:29:24;;;;;;;10.68;7.35;;;;;;;9.78;94.72;98146.84;4960573;28;20031;-59
2021/09/25 05:31:49;;;;;;;8.82;6.60;;;;;;;10.09;94.79;98144.88;4959588;28;20133;-61
2021/09/25 05:34:17;;;;;;;11.02;7.55;;;;;;;10.22;92.35;98141.78;4959754;28;20162;-60
2021/09/25 05:36:46;;;;;;;11.95;7.00;;;;;;;10.48;94.55;98150.41;4959628;28;20046;-59
2021/09/25 05:39:11;;;;;;;9.38;6.63;;;;;;;10.51;95.33;98158.13;4962528;28;20027;-59
2021/09/25 05:41:39;;;;;;;10.82;7.38;;;;;;;10.12;94.72;98144.78;4963004;28;20042;-60
2021/09/25 05:44:22;;;;;;;12.88;7.25;;;;;;;10.15;93.22;98142.91;4963722;28;20085;-59
2021/09/25 05:46:48;;;;;;;11.63;7.93;;;;;;;10.30;94.55;98146.69;4942721;28;20118;-59
2021/09/25 05:49:13;;;;;;;13.35;7.80;;;;;;;10.30;96.22;98148.47;4964243;28;20126;-58
2021/09/25 05:51:44;;;;;;;14.75;7.82;;;;;;;10.43;94.69;98154.94;4962895;28;20319;-59
2021/09/25 05:54:09;;;;;;;9.25;6.78;;;;;;;10.82;95.18;98146.47;4963824;28;20035;-60
2021/09/25 05:56:35;;;;;;;12.45;8.13;;;;;;;10.67;95.70;98147.91;4946178;28;20042;-59
2021/09/25 05:59:00;;;;;;;12.38;8.38;;;;;;;10.73;94.56;98146.81;4963983;28;20045;-60
2021/09/25 06:01:28;;;;;;;12.60;8.20;;;;;;;10.97;92.81;98145.88;4962789;28;20045;-58
2021/09/25 06:03:57;;;;;;;11.43;7.80;;;;;;;11.02;94.27;98142.22;4963815;28;20485;-61
2021/09/25 06:06:22;;;;;;;11.13;8.15;;;;;;;11.12;94.65;98148.75;4963033;28;20906;-59
2021/09/25 06:08:48;;;;;;;12.93;8.93;;;;;;;11.22;95.49;98149.25;4963476;28;20023;-60
2021/09/25 06:11:13;;;;;;;12.23;8.30;;;;;;;10.88;92.78;98140.16;4962246;28;20049;-59
2021/09/25 06:13:39;;;;;;;13.70;7.47;;;;;;;11.23;94.93;98141.34;4946235;28;20026;-60
2021/09/25 06:16:07;;;;;;;12.85;8.05;;;;;;;12.05;90.67;98141.31;4963394;28;20585;-61
2021/09/25 06:18:32;;;;;;;10.85;7.25;;;;;;;12.62;89.26;98141.34;4963491;28;20054;-59
2021/09/25 06:20:58;;;;;;;11.60;6.70;;;;;;;12.39;87.56;98139.81;4962097;28;20077;-59
2021/09/25 06:23:23;;;;;;;10.20;6.78;;;;;;;13.29;85.71;98137.25;4963232;28;20041;-61
2021/09/25 06:25:48;;;;;;;11.77;7.10;;;;;;;13.41;84.59;98134.97;4963100;28;20057;-59
2021/09/25 06:28:14;;;;;;;10.95;6.65;;;;;;;12.50;86.87;98131.47;4963343;28;20034;-59
2021/09/25 06:30:45;;;;;;;8.45;6.43;;;;;;;12.65;88.46;98137.75;4962278;28;20114;-60
2021/09/25 06:33:11;;;;;;;10.95;6.82;;;;;;;13.01;83.67;98131.66;4962776;28;20046;-59
2021/09/25 06:35:54;;;;;;;12.30;6.65;;;;;;;13.89;81.57;98128.13;4961495;28;20134;-60
2021/09/25 06:38:21;;;;;;;8.38;5.90;;;;;;;15.44;77.05;98139.72;4962724;28;20039;-59
2021/09/25 06:40:46;;;;;;;9.88;6.00;;;;;;;16.36;71.71;98136.81;4961910;28;20141;-61
2021/09/25 06:43:12;;;;;;;6.47;5.13;;;;;;;18.62;65.90;98126.16;4962958;28;20385;-62
2021/09/25 06:45:46;;;;;;;8.45;5.03;;;;;;;19.84;63.87;98139.22;4962273;28;20041;-59
2021/09/25 06:48:11;;;;;;;6.07;4.55;;;;;;;20.70;57.23;98133.47;4962835;28;20115;-60
2021/09/25 06:50:36;;;;;;;9.20;4.72;;;;;;;19.93;57.15;98126.25;4961972;28;20054;-64
2021/09/25 06:53:02;;;;;;;7.65;4.53;;;;;;;22.38;52.90;98128.28;4945279;28;20058;-59
2021/09/25 06:55:27;;;;;;;5.82;4.60;;;;;;;21.94;51.68;98133.78;4962636;28;20062;-61
2021/09/25 06:57:53;;;;;;;9.30;4.50;;;;;;;24.17;47.48;98133.38;4945471;28;20026;-61
2021/09/25 07:00:18;;;;;;;6.57;4.57;;;;;;;22.14;49.67;98129.41;4943742;28;20031;-59
2021/09/25 07:02:44;;;;;;;7.05;4.45;;;;;;;22.36;50.24;98130.22;4962730;28;20022;-59
2021/09/25 07:05:10;;;;;;;6.00;4.88;;;;;;;21.56;52.32;98129.09;4962497;28;20483;-60
2021/09/25 07:07:35;;;;;;;7.43;4.60;;;;;;;22.63;49.32;98131.44;4960039;28;20057;-63
2021/09/25 07:10:03;;;;;;;6.63;4.53;;;;;;;23.35;48.38;98132.13;4960495;28;20404;-61
2021/09/25 07:12:28;;;;;;;6.22;4.55;;;;;;;25.38;44.28;98128.78;4960380;28;20042;-63
2021/09/25 07:14:54;;;;;;;6.22;4.50;;;;;;;26.97;41.22;98126.69;4961820;28;20030;-62
2021/09/25 07:17:26;;;;;;;7.78;4.63;;;;;;;27.18;41.10;98130.75;4961630;28;20669;-60
2021/09/25 07:19:51;;;;;;;;;;;;;;;28.12;39.35;98132.06;4962934;28;20027;-62
2021/09/25 07:22:17;;;;;;;5.82;4.30;;;;;;;27.70;39.74;98133.16;4944232;28;20476;-61
2021/09/25 07:24:42;;;;;;;6.07;4.10;;;;;;;28.77;38.26;98122.97;4962468;28;20030;-61
2021/09/25 07:27:08;;;;;;;6.25;4.50;;;;;;;28.65;37.37;98137.78;4961363;28;20114;-60
2021/09/25 07:29:33;;;;;;;6.53;4.25;;;;;;;29.05;38.01;98132.38;4962431;28;20015;-59
2021/09/25 07:32:02;;;;;;;10.52;4.00;;;;;;;29.88;36.99;98133.47;4943489;28;20046;-59
2021/09/25 07:34:30;;;;;;;7.20;4.20;;;;;;;28.36;39.54;98133.88;4957558;28;20035;-59
2021/09/25 07:36:55;;;;;;;6.90;4.25;;;;;;;28.17;40.19;98137.75;4938790;28;20386;-57
2021/09/25 07:39:21;;;;;;;5.97;4.10;;;;;;;29.98;37.43;98132.19;4958574;28;20634;-59
2021/09/25 07:41:46;;;;;;;6.72;3.92;;;;;;;29.59;37.17;98124.28;4937923;28;20702;-57
2021/09/25 07:44:15;;;;;;;5.55;3.72;;;;;;;30.15;36.85;98132.84;4958054;28;20169;-61
2021/09/25 07:46:45;;;;;;;6.07;3.63;;;;;;;30.66;35.47;98128.56;4957341;28;20769;-61
2021/09/25 07:49:31;;;;;;;5.45;3.75;;;;;;;31.21;35.27;98135.25;4958138;28;20030;-60
2021/09/25 07:51:56;;;;;;;4.90;3.63;;;;;;;31.72;34.52;98136.94;4956233;28;20038;-59
2021/09/25 07:54:22;;;;;;;5.80;3.70;;;;;;;30.48;36.72;98129.81;4958299;28;20030;-59
2021/09/25 07:56:53;;;;;;;6.03;3.80;;;;;;;28.99;38.46;98134.75;4957405;28;20132;-60
2021/09/25 07:59:19;;;;;;;7.18;3.88;;;;;;;29.50;38.38;98136.97;4958087;28;20038;-59
2021/09/25 08:01:47;;;;;;;5.25;3.67;;;;;;;28.59;39.08;98144.69;4956256;28;20048;-59
2021/09/25 08:04:16;;;;;;;6.03;4.10;;;;;;;30.18;36.38;98139.69;4957754;28;20047;-58
2021/09/25 08:06:55;;;;;;;6.20;3.83;;;;;;;31.01;35.83;98150.31;4957310;28;20507;-58
2021/09/25 08:09:23;;;;;;;5.20;3.72;;;;;;;31.06;35.74;98147.91;4958085;28;20097;-59
2021/09/25 08:11:50;;;;;;;6.68;3.90;;;;;;;31.10;35.90;98151.88;4957241;28;20043;-57
2021/09/25 08:14:24;;;;;;;7.05;3.92;;;;;;;29.19;38.67;98155.84;4958024;28;20680;-58
2021/09/25 08:16:51;;;;;;;7.88;3.83;;;;;;;31.72;34.73;98152.31;4937528;28;20078;-58
2021/09/25 08:19:16;;;;;;;8.05;4.30;;;;;;;30.93;35.77;98148.59;4957849;28;20057;-59
2021/09/25 08:21:42;;;;;;;8.40;3.75;;;;;;;30.89;36.09;98141.88;4956592;28;20038;-58
2021/09/25 08:24:07;;;;;;;7.25;3.97;;;;;;;31.31;35.38;98153.78;4958114;28;20023;-61
2021/09/25 08:26:33;;;;;;;5.45;3.90;;;;;;;31.40;34.34;98152.63;4957196;28;20046;-58
2021/09/25 08:28:58;;;;;;;6.65;4.00;;;;;;;30.67;36.53;98149.09;4956473;28;20042;-58
2021/09/25 08:31:23;;;;;;;8.63;4.43;;;;;;;27.70;42.70;98157.25;4956782;28;20441;-57
2021/09/25 08:33:49;;;;;;;5.03;3.83;;;;;;;31.13;36.80;98149.63;4957941;28;20023;-61
2021/09/25 08:36:15;;;;;;;7.22;4.45;;;;;;;31.20;36.47;98155.09;4956087;28;20046;-59
2021/09/25 08:38:41;;;;;;;6.50;4.22;;;;;;;31.87;34.65;98151.19;4957572;28;20547;-60
2021/09/25 08:41:06;;;;;;;5.90;3.90;;;;;;;31.83;35.04;98151.75;4956749;28;20753;-60
2021/09/25 08:43:32;;;;;;;7.28;4.28;;;;;;;29.72;38.19;98154.09;4957306;28;20169;-60
2021/09/25 08:46:05;;;;;;;7.40;4.57;;;;;;;30.33;37.18;98150.50;4957021;28;20570;-58
2021/09/25 08:48:32;;;;;;;8.15;4.50;;;;;;;32.25;33.72;98145.44;4956691;28;20601;-60
2021/09/25 08:50:58;;;;;;;7.32;4.15;;;;;;;31.13;36.00;98154.19;4955509;28;20046;-60
2021/09/25 08:53:24;;;;;;;5.50;4.03;;;;;;;29.70;38.22;98144.50;4957385;28;20033;-59
2021/09/25 08:55:49;;;;;;;6.82;4.93;;;;;;;27.36;41.43;98152.06;4956508;28;20047;-59
2021/09/25 08:58:15;;;;;;;8.73;5.10;;;;;;;29.71;38.23;98148.88;4957234;28;20528;-57
2021/09/25 09:00:57;;;;;;;8.52;4.80;;;;;;;29.76;38.01;98147.34;4956478;28;20042;-56
2021/09/25 09:03:34;;;;;;;7.60;4.70;;;;;;;31.61;35.35;98146.41;4957157;28;20034;-57
2021/09/25 09:06:05;;;;;;;6.20;3.78;;;;;;;31.02;36.34;98147.44;4956568;28;20043;-58
2021/09/25 09:08:32;;;;;;;6.40;4.35;;;;;;;30.89;35.76;98148.09;4956848;28;20031;-60
2021/09/25 09:10:57;;;;;;;6.57;4.13;;;;;;;29.70;38.25;98147.19;4956109;28;20516;-58
2021/09/25 09:13:23;;;;;;;8.63;4.47;;;;;;;31.75;34.81;98149.22;4958294;28;20528;-57
2021/09/25 09:15:50;;;;;;;6.10;4.30;;;;;;;30.00;37.95;98142.75;4960323;28;20070;-60
2021/09/25 09:18:29;;;;;;;5.18;3.95;;;;;;;28.91;39.09;98145.56;4960837;28;20031;-59
2021/09/25 09:21:07;;;;;;;6.68;4.43;;;;;;;30.53;36.94;98142.69;4959393;28;20065;-58
2021/09/25 09:23:34;;;;;;;8.23;4.40;;;;;;;30.09;36.64;98136.28;4960360;28;20043;-59
2021/09/25 09:26:01;;;;;;;6.35;4.32;;;;;;;30.29;36.58;98146.47;4960700;28;20047;-58
2021/09/25 09:28:31;;;;;;;6.32;4.03;;;;;;;31.51;34.28;98137.81;4960427;28;20034;-58
2021/09/25 09:30:59;;;;;;;6.85;3.80;;;;;;;30.33;36.04;98137.06;4959936;28;20035;-59
2021/09/25 09:33:40;;;;;;;5.95;3.53;;;;;;;30.33;37.55;98143.25;4960986;28;20037;-59
2021/09/25 09:36:42;;;;;;;9.80;4.00;;;;;;;30.85;35.08;98141.44;4960086;28;20043;-59
2021/09/25 09:39:21;;;;;;;6.65;3.83;;;;;;;30.86;36.24;98131.50;4961212;28;20554;-58
2021/09/25 09:41:48;;;;;;;7.03;3.75;;;;;;;29.91;37.85;98139.31;4959917;28;20043;-59
2021/09/25 09:44:19;;;;;;;6.78;3.97;;;;;;;29.28;39.44;98145.84;4961083;28;20519;-58
2021/09/25 09:46:51;;;;;;;7.25;3.60;;;;;;;30.82;36.35;98141.81;4959934;28;20049;-59
2021/09/25 09:49:25;;;;;;;5.18;3.63;;;;;;;30.81;35.83;98129.38;4960313;28;20090;-59
2021/09/25 09:52:01;;;;;;;5.35;4.20;;;;;;;28.54;39.61;98130.13;4959327;28;20035;-60
2021/09/25 09:54:38;;;;;;;5.25;3.92;;;;;;;28.89;39.21;98133.31;4960575;28;20027;-59
2021/09/25 09:57:08;;;;;;;4.97;3.90;;;;;;;30.40;37.39;98126.38;4958463;28;20467;-58
2021/09/25 09:59:34;;;;;;;6.67;3.80;;;;;;;31.77;34.06;98125.59;4959398;28;20189;-59
2021/09/25 10:02:03;;;;;;;5.53;3.70;;;;;;;31.35;34.32;98119.19;4958458;28;20278;-58
2021/09/25 10:04:36;;;;;;;4.43;3.50;;;;;;;32.25;33.41;98123.03;4960077;28;20121;-58
2021/09/25 10:07:02;;;;;;;6.03;3.92;;;;;;;30.46;35.97;98115.69;4960326;28;20097;-58
2021/09/25 10:09:30;;;;;;;5.40;3.45;;;;;;;31.80;34.63;98117.09;4952018;28;20416;-58
2021/09/25 10:12:08;;;;;;;7.70;4.13;;;;;;;28.15;38.85;98114.81;4960300;28;20859;-58
2021/09/25 10:14:36;;;;;;;6.97;3.88;;;;;;;29.97;37.13;98105.47;4960787;28;20065;-58
2021/09/25 10:17:06;;;;;;;6.85;3.55;;;;;;;30.91;36.06;98094.91;4960673;28;20053;-59
2021/09/25 10:19:33;;;;;;;5.70;3.60;;;;;;;30.70;35.46;98094.88;4960800;28;20019;-58
2021/09/25 10:22:37;;;;;;;4.90;3.65;;;;;;;30.13;36.09;98099.91;4959885;28;20043;-58
2021/09/25 10:25:10;;;;;;;8.00;3.78;;;;;;;29.81;37.43;98093.00;4961172;28;20033;-58
2021/09/25 10:27:38;;;;;;;4.80;3.78;;;;;;;29.50;37.73;98098.47;4960724;28;20054;-58
2021/09/25 10:30:10;;;;;;;5.05;3.50;;;;;;;29.07;38.46;98090.09;4960736;28;20039;-57
2021/09/25 10:32:48;;;;;;;;;;;;;;;30.04;36.10;98100.19;4961135;28;20073;-61
2021/09/25 10:35:44;;;;;;;5.65;3.40;;;;;;;29.89;37.23;98092.94;4959982;28;19918;-58
2021/09/25 10:38:10;;;;;;;7.88;3.80;;;;;;;29.07;38.74;98092.75;4936417;28;20051;-59
2021/09/25 10:40:39;;;;;;;5.75;3.80;;;;;;;28.98;38.63;98094.66;4960137;28;20030;-58
2021/09/25 10:43:26;;;;;;;4.55;3.50;;;;;;;30.10;37.08;98086.00;4961098;28;20440;-59
2021/09/25 10:46:13;;;;;;;6.03;3.50;;;;;;;29.67;39.16;98080.38;4960745;28;20114;-58
2021/09/25 10:48:52;;;;;;;4.85;3.60;;;;;;;28.75;40.10;98079.38;4960365;28;20138;-58
2021/09/25 10:51:26;;;;;;;5.10;3.25;;;;;;;29.65;38.81;98083.25;4959286;28;20038;-58
2021/09/25 10:53:51;;;;;;;4.22;3.42;;;;;;;29.27;39.51;98083.22;4960951;28;20045;-60
2021/09/25 10:56:41;;;;;;;4.70;3.50;;;;;;;28.36;39.66;98076.69;4959967;28;20043;-59
2021/09/25 10:59:08;;;;;;;6.53;3.50;;;;;;;29.54;39.09;98089.06;4959699;28;20078;-60
2021/09/25 11:01:39;;;;;;;4.45;3.15;;;;;;;29.14;39.71;98081.16;4959394;28;20039;-58
2021/09/25 11:04:08;;;;;;;5.88;3.67;;;;;;;28.46;39.78;98085.38;4938388;28;20789;-58
2021/09/25 11:07:20;;;;;;;4.70;3.63;;;;;;;28.29;40.46;98079.25;4958014;28;20047;-59
2021/09/25 11:09:45;;;;;;;5.47;3.53;;;;;;;29.08;40.79;98081.84;4957353;28;20030;-59
2021/09/25 11:12:14;;;;;;;4.20;3.60;;;;;;;29.52;39.63;98062.38;4940916;28;20136;-60
2021/09/25 11:14:56;;;;;;;6.20;3.67;;;;;;;28.99;40.43;98070.31;4958728;28;20027;-59
2021/09/25 11:17:23;;;;;;;5.13;3.55;;;;;;;28.57;41.49;98079.63;4958096;28;20047;-60
2021/09/25 11:20:00;;;;;;;4.50;3.90;;;;;;;27.45;41.81;98060.81;4958079;28;20035;-58
2021/09/25 11:22:26;;;;;;;7.30;4.07;;;;;;;26.93;41.13;98061.94;4957567;28;20065;-59
2021/09/25 11:25:00;;;;;;;6.63;3.63;;;;;;;28.29;40.23;98054.25;4958811;28;20566;-58
2021/09/25 11:27:32;;;;;;;4.57;3.40;;;;;;;28.53;40.57;98054.19;4958193;28;20635;-58
2021/09/25 11:29:59;;;;;;;6.68;3.65;;;;;;;27.04;42.01;98055.44;4947607;28;20049;-61
2021/09/25 11:32:46;;;;;;;5.55;3.90;;;;;;;26.99;43.69;98048.91;4957477;28;20045;-58
2021/09/25 11:35:20;;;;;;;4.97;3.55;;;;;;;27.96;41.97;98051.72;4957614;28;20066;-58